createdAt,value
2019-03-31T00:01:07.638Z,8.20
2019-03-31T00:03:27.398Z,8.30
2019-03-31T00:05:56.087Z,8.20
2019-03-31T00:08:24.538Z,8.20
2019-03-31T00:10:53.022Z,8.10
2019-03-31T00:13:21.488Z,8.30
2019-03-31T00:15:50.006Z,8.20
2019-03-31T00:18:18.570Z,8.20
2019-03-31T00:20:47.137Z,8.10
2019-03-31T00:23:15.558Z,8.10
2019-03-31T00:25:45.750Z,8.00
2019-03-31T00:28:14.220Z,8.00
2019-03-31T00:30:42.694Z,7.90
2019-03-31T00:33:11.298Z,8.10
2019-03-31T00:35:39.878Z,7.90
2019-03-31T00:38:08.426Z,7.80
2019-03-31T00:40:36.839Z,7.80
2019-03-31T00:43:05.297Z,7.80
2019-03-31T00:45:33.773Z,7.80
2019-03-31T00:48:02.295Z,7.80
2019-03-31T00:50:30.794Z,7.80
2019-03-31T00:52:59.254Z,7.80
2019-03-31T00:55:27.748Z,7.80
2019-03-31T00:57:56.227Z,7.80
2019-03-31T01:00:43.572Z,7.80
2019-03-31T01:03:12.173Z,7.70
2019-03-31T01:05:42.345Z,7.70
2019-03-31T01:08:11.608Z,7.70
2019-03-31T01:10:41.198Z,7.90
2019-03-31T01:13:10.219Z,7.90
2019-03-31T01:15:38.730Z,7.90
2019-03-31T01:18:07.546Z,7.80
2019-03-31T01:20:35.983Z,7.70
2019-03-31T01:23:04.679Z,7.60
2019-03-31T01:25:33.252Z,7.60
2019-03-31T01:28:01.922Z,7.50
2019-03-31T01:30:30.347Z,7.50
2019-03-31T01:32:59.602Z,7.40
2019-03-31T01:35:28.101Z,7.50
2019-03-31T01:37:56.588Z,7.40
2019-03-31T01:40:25.046Z,7.30
2019-03-31T01:42:53.464Z,7.30
2019-03-31T01:45:21.980Z,7.30
2019-03-31T01:47:50.505Z,7.20
2019-03-31T01:50:19.560Z,7.20
2019-03-31T01:52:48.079Z,7.20
2019-03-31T01:55:16.784Z,7.10
2019-03-31T01:57:45.239Z,7.20
2019-03-31T02:00:32.475Z,7.20
2019-03-31T02:03:01.031Z,7.00
2019-03-31T02:05:29.589Z,7.00
2019-03-31T02:07:58.018Z,7.00
2019-03-31T02:10:26.621Z,7.10
2019-03-31T02:12:55.098Z,7.00
2019-03-31T02:15:23.554Z,6.90
2019-03-31T02:17:52.050Z,6.90
2019-03-31T02:20:20.584Z,6.80
2019-03-31T02:22:49.204Z,6.80
2019-03-31T02:25:17.639Z,6.80
2019-03-31T02:27:46.105Z,6.70
2019-03-31T02:30:15.550Z,6.70
2019-03-31T02:32:44.039Z,6.60
2019-03-31T02:35:12.803Z,6.60
2019-03-31T02:37:41.224Z,6.60
2019-03-31T02:40:09.950Z,6.80
2019-03-31T02:42:38.411Z,6.80
2019-03-31T02:45:08.271Z,6.70
2019-03-31T02:47:36.800Z,6.60
2019-03-31T02:50:06.771Z,6.60
2019-03-31T02:52:35.283Z,6.60
2019-03-31T02:55:04.731Z,6.60
2019-03-31T02:57:33.286Z,6.70
2019-03-31T03:00:03.162Z,6.50
2019-03-31T03:02:42.172Z,6.50
2019-03-31T03:05:18.493Z,6.50
2019-03-31T03:07:37.299Z,6.40
2019-03-31T03:10:06.117Z,6.40
2019-03-31T03:12:36.111Z,6.40
2019-03-31T03:15:08.099Z,6.30
2019-03-31T03:17:36.515Z,6.30
2019-03-31T03:20:05.799Z,6.30
2019-03-31T03:22:34.350Z,6.30
2019-03-31T03:25:02.812Z,6.20
2019-03-31T03:27:31.386Z,6.10
2019-03-31T03:29:59.800Z,6.10
2019-03-31T03:32:28.365Z,6.10
2019-03-31T03:34:56.936Z,6.20
2019-03-31T03:37:25.456Z,6.30
2019-03-31T03:39:53.906Z,6.20
2019-03-31T03:42:22.411Z,6.10
2019-03-31T03:44:50.983Z,6.10
2019-03-31T03:47:19.463Z,6.10
2019-03-31T03:49:47.911Z,6.00
2019-03-31T03:52:16.349Z,5.90
2019-03-31T03:54:44.791Z,5.90
2019-03-31T03:57:13.267Z,5.80
2019-03-31T03:59:41.840Z,5.70
2019-03-31T04:02:10.337Z,5.60
2019-03-31T04:04:38.792Z,5.60
2019-03-31T04:07:07.282Z,5.60
2019-03-31T04:09:35.705Z,5.60
2019-03-31T04:12:04.272Z,5.60
2019-03-31T04:14:32.687Z,5.50
2019-03-31T04:17:01.221Z,5.40
2019-03-31T04:19:29.630Z,5.50
2019-03-31T04:21:58.084Z,5.40
2019-03-31T04:24:26.518Z,5.30
2019-03-31T04:26:55.132Z,5.40
2019-03-31T04:29:23.586Z,5.40
2019-03-31T04:31:52.040Z,5.30
2019-03-31T04:34:20.578Z,5.20
2019-03-31T04:36:49.135Z,5.20
2019-03-31T04:39:17.565Z,5.20
2019-03-31T04:41:46.008Z,5.20
2019-03-31T04:44:14.438Z,5.20
2019-03-31T04:46:42.894Z,5.20
2019-03-31T04:49:11.386Z,5.20
2019-03-31T04:51:39.858Z,5.20
2019-03-31T04:54:08.334Z,5.30
2019-03-31T04:56:36.826Z,5.20
2019-03-31T04:59:05.430Z,5.20
2019-03-31T05:01:33.849Z,5.10
2019-03-31T05:04:04.887Z,5.10
2019-03-31T05:06:32.438Z,5.10
2019-03-31T05:09:00.879Z,5.10
2019-03-31T05:11:29.459Z,5.10
2019-03-31T05:13:57.995Z,5.10
2019-03-31T05:16:26.454Z,5.20
2019-03-31T05:18:54.882Z,5.20
2019-03-31T05:21:23.389Z,5.40
2019-03-31T05:23:51.862Z,5.30
2019-03-31T05:26:20.277Z,5.40
2019-03-31T05:28:48.714Z,5.30
2019-03-31T05:31:17.270Z,5.30
2019-03-31T05:33:45.682Z,5.40
2019-03-31T05:36:14.217Z,5.30
2019-03-31T05:38:42.658Z,5.40
2019-03-31T05:41:11.093Z,5.40
2019-03-31T05:43:39.521Z,5.50
2019-03-31T05:46:08.338Z,5.60
2019-03-31T05:48:36.801Z,5.60
2019-03-31T05:51:05.296Z,5.70
2019-03-31T05:53:33.797Z,5.70
2019-03-31T05:56:02.270Z,5.80
2019-03-31T05:58:30.750Z,5.90
2019-03-31T06:00:59.205Z,5.90
2019-03-31T06:03:27.611Z,6.00
2019-03-31T06:05:58.970Z,6.20
2019-03-31T06:08:27.390Z,6.40
2019-03-31T06:10:55.874Z,6.40
2019-03-31T06:13:43.677Z,6.50
2019-03-31T06:16:12.242Z,6.70
2019-03-31T06:18:40.693Z,6.80
2019-03-31T06:21:09.214Z,7.00
2019-03-31T06:23:37.705Z,7.20
2019-03-31T06:26:06.223Z,7.40
2019-03-31T06:28:34.731Z,7.70
2019-03-31T06:31:03.243Z,8.00
2019-03-31T06:33:31.682Z,8.60
2019-03-31T06:36:00.170Z,9.00
2019-03-31T06:38:28.617Z,9.40
2019-03-31T06:40:58.478Z,9.80
2019-03-31T06:43:27.037Z,10.10
2019-03-31T06:45:55.613Z,10.30
2019-03-31T06:48:24.229Z,10.80
2019-03-31T06:50:52.707Z,10.80
2019-03-31T06:53:21.191Z,10.90
2019-03-31T06:55:49.639Z,11.10
2019-03-31T06:58:18.193Z,11.20
2019-03-31T07:00:46.631Z,11.50
2019-03-31T07:03:15.190Z,11.70
2019-03-31T07:05:43.693Z,11.60
2019-03-31T07:08:12.177Z,12.00
2019-03-31T07:10:40.738Z,12.10
2019-03-31T07:13:09.406Z,12.70
2019-03-31T07:15:37.931Z,13.20
2019-03-31T07:18:06.366Z,13.20
2019-03-31T07:20:34.798Z,13.20
2019-03-31T07:23:03.349Z,13.30
2019-03-31T07:25:31.847Z,13.60
2019-03-31T07:28:00.297Z,13.60
2019-03-31T07:30:28.936Z,13.40
2019-03-31T07:32:57.506Z,13.40
2019-03-31T07:35:25.959Z,13.80
2019-03-31T07:37:54.538Z,14.20
2019-03-31T07:40:24.822Z,14.10
2019-03-31T07:42:53.667Z,14.10
2019-03-31T07:45:22.461Z,13.60
2019-03-31T07:47:50.907Z,13.30
2019-03-31T07:50:19.843Z,13.50
2019-03-31T07:52:48.533Z,13.60
2019-03-31T07:55:18.442Z,13.90
2019-03-31T07:57:47.073Z,14.00
2019-03-31T08:00:20.967Z,14.00
2019-03-31T08:02:49.496Z,13.80
2019-03-31T08:05:33.143Z,13.50
2019-03-31T08:07:59.337Z,13.50
2019-03-31T08:10:27.784Z,13.60
2019-03-31T08:12:56.230Z,13.80
2019-03-31T08:15:24.774Z,14.10
2019-03-31T08:17:53.207Z,14.30
2019-03-31T08:20:22.105Z,14.70
2019-03-31T08:22:50.564Z,15.20
2019-03-31T08:25:19.743Z,15.50
2019-03-31T08:27:48.281Z,15.70
2019-03-31T08:30:18.848Z,15.90
2019-03-31T08:32:47.379Z,16.00
2019-03-31T08:35:16.037Z,16.10
2019-03-31T08:37:44.488Z,16.40
2019-03-31T08:40:13.745Z,16.80
2019-03-31T08:42:42.437Z,16.90
2019-03-31T08:45:11.295Z,16.80
2019-03-31T08:47:39.757Z,16.70
2019-03-31T08:50:08.693Z,16.90
2019-03-31T08:52:37.179Z,17.10
2019-03-31T08:55:06.965Z,17.10
2019-03-31T08:57:35.588Z,17.00
2019-03-31T09:00:06.932Z,16.90
2019-03-31T09:02:35.880Z,16.70
2019-03-31T09:05:06.646Z,16.70
2019-03-31T09:07:35.219Z,16.70
2019-03-31T09:10:10.492Z,16.80
2019-03-31T09:12:39.314Z,16.80
2019-03-31T09:15:09.150Z,16.70
2019-03-31T09:17:37.839Z,16.90
2019-03-31T09:20:12.781Z,17.00
2019-03-31T09:22:41.275Z,17.00
2019-03-31T09:25:15.815Z,17.00
2019-03-31T09:27:44.273Z,17.00
2019-03-31T09:30:13.774Z,17.20
2019-03-31T09:32:42.257Z,17.00
2019-03-31T09:35:25.609Z,17.10
2019-03-31T09:37:59.314Z,17.20
2019-03-31T09:40:27.782Z,17.10
2019-03-31T09:42:57.242Z,17.10
2019-03-31T09:45:25.855Z,17.00
2019-03-31T09:47:54.312Z,17.30
2019-03-31T09:50:23.137Z,17.30
2019-03-31T09:52:51.606Z,17.50
2019-03-31T09:55:22.912Z,17.60
2019-03-31T09:57:50.287Z,17.70
2019-03-31T10:00:30.503Z,17.90
2019-03-31T10:03:01.152Z,18.00
2019-03-31T10:05:29.169Z,18.10
2019-03-31T10:07:57.743Z,17.80
2019-03-31T10:10:31.279Z,17.70
2019-03-31T10:12:59.927Z,17.90
2019-03-31T10:15:28.478Z,18.00
2019-03-31T10:17:57.046Z,17.90
2019-03-31T10:20:25.598Z,17.90
2019-03-31T10:22:54.055Z,18.20
2019-03-31T10:25:22.590Z,18.10
2019-03-31T10:27:51.055Z,17.90
2019-03-31T10:30:25.724Z,18.00
2019-03-31T10:32:54.188Z,18.20
2019-03-31T10:35:22.617Z,18.50
2019-03-31T10:37:51.213Z,18.40
2019-03-31T10:40:19.791Z,18.30
2019-03-31T10:42:48.355Z,18.30
2019-03-31T10:45:16.889Z,18.30
2019-03-31T10:47:45.443Z,18.20
2019-03-31T10:50:14.173Z,18.20
2019-03-31T10:52:42.791Z,18.30
2019-03-31T10:55:11.645Z,18.30
2019-03-31T10:57:40.134Z,18.40
2019-03-31T11:00:09.921Z,18.60
2019-03-31T11:02:38.535Z,18.50
2019-03-31T11:05:07.611Z,18.60
2019-03-31T11:07:36.146Z,18.40
2019-03-31T11:10:08.020Z,18.40
2019-03-31T11:12:36.495Z,18.60
2019-03-31T11:15:07.494Z,18.40
2019-03-31T11:17:36.018Z,18.30
2019-03-31T11:20:18.434Z,18.30
2019-03-31T11:22:51.152Z,18.10
2019-03-31T11:25:21.311Z,17.90
2019-03-31T11:27:49.855Z,17.70
2019-03-31T11:30:18.372Z,17.90
2019-03-31T11:32:46.856Z,18.00
2019-03-31T11:35:15.316Z,18.10
2019-03-31T11:37:43.790Z,18.00
2019-03-31T11:40:12.698Z,18.00
2019-03-31T11:42:41.138Z,17.90
2019-03-31T11:45:09.763Z,17.70
2019-03-31T11:47:38.222Z,17.70
2019-03-31T11:50:07.948Z,17.60
2019-03-31T11:52:36.423Z,17.60
2019-03-31T11:55:06.980Z,17.60
2019-03-31T11:57:35.523Z,17.60
2019-03-31T12:00:08.335Z,17.50
2019-03-31T12:02:36.851Z,17.50
2019-03-31T12:05:09.890Z,17.50
2019-03-31T12:07:46.537Z,17.60
2019-03-31T12:10:08.698Z,17.60
2019-03-31T12:12:37.166Z,17.80
2019-03-31T12:15:07.339Z,17.80
2019-03-31T12:17:35.858Z,17.80
2019-03-31T12:20:29.253Z,17.90
2019-03-31T12:22:57.747Z,18.30
2019-03-31T12:25:26.252Z,18.90
2019-03-31T12:27:54.798Z,19.30
2019-03-31T12:30:27.860Z,19.20
2019-03-31T12:32:56.538Z,19.20
2019-03-31T12:35:24.948Z,19.30
2019-03-31T12:37:53.474Z,19.40
2019-03-31T12:40:30.351Z,19.70
2019-03-31T12:42:58.838Z,19.40
2019-03-31T12:45:27.320Z,19.00
2019-03-31T12:47:55.858Z,19.10
2019-03-31T12:50:24.422Z,19.00
2019-03-31T12:52:54.187Z,19.20
2019-03-31T12:55:22.630Z,19.30
2019-03-31T12:57:52.051Z,19.70
2019-03-31T13:00:20.907Z,19.60
2019-03-31T13:02:49.404Z,19.20
2019-03-31T13:05:17.842Z,19.30
2019-03-31T13:07:56.101Z,19.30
2019-03-31T13:10:16.775Z,19.40
2019-03-31T13:12:45.221Z,19.60
2019-03-31T13:15:13.743Z,19.70
2019-03-31T13:17:42.214Z,19.60
2019-03-31T13:20:10.905Z,19.70
2019-03-31T13:22:39.488Z,19.80
2019-03-31T13:25:08.175Z,19.50
2019-03-31T13:27:36.713Z,19.30
2019-03-31T13:30:07.356Z,19.30
2019-03-31T13:32:35.837Z,19.30
2019-03-31T13:35:08.467Z,19.20
2019-03-31T13:37:36.102Z,19.30
2019-03-31T13:40:07.062Z,19.60
2019-03-31T13:42:35.623Z,19.80
2019-03-31T13:45:05.820Z,19.40
2019-03-31T13:47:34.283Z,19.60
2019-03-31T13:50:04.819Z,19.70
2019-03-31T13:52:33.287Z,19.50
2019-03-31T13:55:01.903Z,19.40
2019-03-31T13:57:31.578Z,19.40
2019-03-31T14:00:00.897Z,19.40
2019-03-31T14:02:29.367Z,19.60
2019-03-31T14:04:57.922Z,19.40
2019-03-31T14:07:26.402Z,19.20
2019-03-31T14:09:54.910Z,19.10
2019-03-31T14:12:23.375Z,18.90
2019-03-31T14:14:51.857Z,18.70
2019-03-31T14:17:20.277Z,18.80
2019-03-31T14:19:48.760Z,18.70
2019-03-31T14:22:17.239Z,18.50
2019-03-31T14:24:45.778Z,18.30
2019-03-31T14:27:14.292Z,18.30
2019-03-31T14:29:42.766Z,18.60
2019-03-31T14:32:11.349Z,18.70
2019-03-31T14:34:39.898Z,18.80
2019-03-31T14:37:08.691Z,18.90
2019-03-31T14:39:37.226Z,19.00
2019-03-31T14:42:05.852Z,19.10
2019-03-31T14:44:34.499Z,19.00
2019-03-31T14:47:03.095Z,19.10
2019-03-31T14:49:31.941Z,19.10
2019-03-31T14:52:01.497Z,19.10
2019-03-31T14:54:30.194Z,19.20
2019-03-31T14:56:58.692Z,19.20
2019-03-31T14:59:27.229Z,19.10
2019-03-31T15:01:55.712Z,18.90
2019-03-31T15:04:24.170Z,19.10
2019-03-31T15:06:52.630Z,19.10
2019-03-31T15:09:21.162Z,19.30
2019-03-31T15:11:49.593Z,19.40
2019-03-31T15:14:18.103Z,19.50
2019-03-31T15:16:48.386Z,19.70
2019-03-31T15:19:16.740Z,19.60
2019-03-31T15:21:45.187Z,19.60
2019-03-31T15:24:13.751Z,19.50
2019-03-31T15:26:42.357Z,19.10
2019-03-31T15:29:10.807Z,18.80
2019-03-31T15:31:39.242Z,18.90
2019-03-31T15:34:07.742Z,18.80
2019-03-31T15:36:36.278Z,18.90
2019-03-31T15:39:08.993Z,19.10
2019-03-31T15:41:37.735Z,19.10
2019-03-31T15:44:06.520Z,18.90
2019-03-31T15:46:34.993Z,18.90
2019-03-31T15:49:03.540Z,18.70
2019-03-31T15:51:31.995Z,18.50
2019-03-31T15:54:00.512Z,18.50
2019-03-31T15:56:29.035Z,18.60
2019-03-31T15:58:57.510Z,18.30
2019-03-31T16:01:25.995Z,17.50
2019-03-31T16:03:54.446Z,17.10
2019-03-31T16:06:22.925Z,16.90
2019-03-31T16:08:51.385Z,16.70
2019-03-31T16:11:19.902Z,16.50
2019-03-31T16:13:48.367Z,16.50
2019-03-31T16:16:16.835Z,16.40
2019-03-31T16:18:45.394Z,16.30
2019-03-31T16:21:13.948Z,16.10
2019-03-31T16:23:42.497Z,15.90
2019-03-31T16:26:10.978Z,15.70
2019-03-31T16:28:39.446Z,15.50
2019-03-31T16:31:07.875Z,15.50
2019-03-31T16:33:36.420Z,15.30
2019-03-31T16:36:04.839Z,15.20
2019-03-31T16:38:33.300Z,15.10
2019-03-31T16:41:02.403Z,15.10
2019-03-31T16:43:30.904Z,15.00
2019-03-31T16:46:00.991Z,14.90
2019-03-31T16:48:29.562Z,14.90
2019-03-31T16:50:59.040Z,14.80
2019-03-31T16:53:27.844Z,14.80
2019-03-31T16:55:56.440Z,14.80
2019-03-31T16:58:24.995Z,14.70
2019-03-31T17:00:53.608Z,14.70
2019-03-31T17:03:22.069Z,14.70
2019-03-31T17:05:57.733Z,14.60
2019-03-31T17:08:26.251Z,14.50
2019-03-31T17:10:54.738Z,14.40
2019-03-31T17:13:23.316Z,14.40
2019-03-31T17:15:51.777Z,14.40
2019-03-31T17:18:20.335Z,14.30
2019-03-31T17:20:48.939Z,14.30
2019-03-31T17:23:17.513Z,14.20
2019-03-31T17:25:46.061Z,14.20
2019-03-31T17:28:15.543Z,14.20
2019-03-31T17:30:44.023Z,14.20
2019-03-31T17:33:12.598Z,14.10
2019-03-31T17:35:41.186Z,14.10
2019-03-31T17:38:09.670Z,14.10
2019-03-31T17:40:38.142Z,14.00
2019-03-31T17:43:06.622Z,14.00
2019-03-31T17:45:35.103Z,14.00
2019-03-31T17:48:03.665Z,13.90
2019-03-31T17:50:32.118Z,13.90
2019-03-31T17:53:03.627Z,13.90
2019-03-31T17:55:30.888Z,13.90
2019-03-31T17:57:59.403Z,13.80
2019-03-31T18:00:27.901Z,13.80
2019-03-31T18:02:56.326Z,13.70
2019-03-31T18:05:24.891Z,13.70
2019-03-31T18:07:53.460Z,13.60
2019-03-31T18:10:25.035Z,13.60
2019-03-31T18:12:54.690Z,13.50
2019-03-31T18:15:23.219Z,13.40
2019-03-31T18:17:51.704Z,13.40
2019-03-31T18:20:20.208Z,13.30
2019-03-31T18:22:48.670Z,13.30
2019-03-31T18:25:17.189Z,13.20
2019-03-31T18:27:46.216Z,13.20
2019-03-31T18:30:16.508Z,13.10
2019-03-31T18:32:45.056Z,13.00
2019-03-31T18:35:16.624Z,12.90
2019-03-31T18:37:43.701Z,12.80
2019-03-31T18:40:12.335Z,12.70
2019-03-31T18:42:40.882Z,12.60
2019-03-31T18:45:09.587Z,12.50
2019-03-31T18:47:38.242Z,12.40
2019-03-31T18:50:07.234Z,12.30
2019-03-31T18:52:36.845Z,12.20
2019-03-31T18:55:08.128Z,12.10
2019-03-31T18:57:41.121Z,12.00
2019-03-31T19:00:17.202Z,11.90
2019-03-31T19:02:50.386Z,11.80
2019-03-31T19:05:24.500Z,11.80
2019-03-31T19:07:57.420Z,11.60
2019-03-31T19:10:49.523Z,11.60
2019-03-31T19:13:23.302Z,11.50
2019-03-31T19:16:05.205Z,11.40
2019-03-31T19:18:35.379Z,11.30
2019-03-31T19:21:10.829Z,11.30
2019-03-31T19:23:46.502Z,11.30
2019-03-31T19:26:47.304Z,11.20
2019-03-31T19:29:05.010Z,11.10
2019-03-31T19:31:50.406Z,11.10
2019-03-31T19:34:29.727Z,11.10
2019-03-31T19:37:08.648Z,11.00
2019-03-31T19:39:38.746Z,11.00
2019-03-31T19:42:11.863Z,10.90
2019-03-31T19:44:54.326Z,10.90
2019-03-31T19:50:31.527Z,10.80
2019-03-31T19:53:18.015Z,10.80
2019-03-31T19:55:48.246Z,10.70
2019-03-31T19:58:27.598Z,10.70
2019-03-31T20:00:57.771Z,10.60
2019-03-31T20:03:44.410Z,10.60
2019-03-31T20:06:23.623Z,10.60
2019-03-31T20:08:59.549Z,10.40
2019-03-31T20:11:46.153Z,10.50
2019-03-31T20:17:24.146Z,10.40
2019-03-31T20:19:59.872Z,10.40
2019-03-31T20:25:23.690Z,10.30
2019-03-31T20:27:59.417Z,10.30
2019-03-31T20:30:30.697Z,10.20
2019-03-31T20:33:00.836Z,10.20
2019-03-31T20:35:43.103Z,10.10
2019-03-31T20:38:15.674Z,10.10
2019-03-31T20:40:48.890Z,10.10
2019-03-31T20:43:34.377Z,10.10
2019-03-31T20:46:04.499Z,10.00
2019-03-31T20:48:33.261Z,10.00
2019-03-31T20:51:01.734Z,10.00
2019-03-31T20:53:30.209Z,9.90
2019-03-31T20:55:58.721Z,9.90
2019-03-31T20:58:27.226Z,9.80
2019-03-31T21:00:55.791Z,9.80
2019-03-31T21:03:24.274Z,9.80
2019-03-31T21:05:52.714Z,9.80
2019-03-31T21:08:21.204Z,9.70
2019-03-31T21:10:49.830Z,9.70
2019-03-31T21:13:18.358Z,9.60
2019-03-31T21:15:46.821Z,9.60
2019-03-31T21:18:16.198Z,9.60
2019-03-31T21:20:44.914Z,9.50
2019-03-31T21:23:13.460Z,9.50
2019-03-31T21:25:42.040Z,9.50
2019-03-31T21:28:10.497Z,9.40
2019-03-31T21:30:39.318Z,9.40
2019-03-31T21:33:07.829Z,9.40
2019-03-31T21:35:36.380Z,9.30
2019-03-31T21:38:10.585Z,9.40
2019-03-31T21:40:39.303Z,9.30
2019-03-31T21:43:07.826Z,9.30
2019-03-31T21:45:36.346Z,9.30
2019-03-31T21:48:04.922Z,9.20
2019-03-31T21:50:33.352Z,9.20
2019-03-31T21:53:01.823Z,9.20
2019-03-31T21:55:30.362Z,9.10
2019-03-31T21:57:58.995Z,9.10
2019-03-31T22:00:45.644Z,9.10
2019-03-31T22:03:14.252Z,9.10
2019-03-31T22:05:42.738Z,9.10
2019-03-31T22:08:11.205Z,9.00
2019-03-31T22:10:39.824Z,9.00
2019-03-31T22:13:08.318Z,9.00
2019-03-31T22:15:36.794Z,8.90
2019-03-31T22:18:05.327Z,8.90
2019-03-31T22:20:33.847Z,8.90
2019-03-31T22:23:02.364Z,8.90
2019-03-31T22:25:30.830Z,8.80
2019-03-31T22:27:59.507Z,8.80
2019-03-31T22:30:27.957Z,8.80
2019-03-31T22:32:56.446Z,8.80
2019-03-31T22:35:24.888Z,8.80
2019-03-31T22:37:53.336Z,8.70
2019-03-31T22:40:30.522Z,8.70
2019-03-31T22:42:58.997Z,8.70
2019-03-31T22:45:27.574Z,8.60
2019-03-31T22:47:56.098Z,8.60
2019-03-31T22:50:24.756Z,8.50
2019-03-31T22:52:53.411Z,8.50
2019-03-31T22:55:22.082Z,8.40
2019-03-31T22:57:50.580Z,8.50
2019-03-31T23:00:20.816Z,8.50
2019-03-31T23:02:49.446Z,8.40
2019-03-31T23:05:18.028Z,8.40
2019-03-31T23:07:46.513Z,8.40
2019-03-31T23:10:15.052Z,8.40
2019-03-31T23:12:43.632Z,8.30
2019-03-31T23:15:12.161Z,8.30
2019-03-31T23:17:40.590Z,8.30
2019-03-31T23:20:09.142Z,8.30
2019-03-31T23:22:37.858Z,8.30
2019-03-31T23:25:06.932Z,8.30
2019-03-31T23:27:35.389Z,8.20
2019-03-31T23:30:08.836Z,8.30
2019-03-31T23:32:37.292Z,8.20
2019-03-31T23:35:06.994Z,8.20
2019-03-31T23:37:35.442Z,8.20
2019-03-31T23:40:05.668Z,8.10
2019-03-31T23:42:34.179Z,8.20
2019-03-31T23:45:02.763Z,8.20
2019-03-31T23:47:31.217Z,8.20
2019-03-31T23:49:59.686Z,8.10
2019-03-31T23:52:28.221Z,8.20
2019-03-31T23:54:56.666Z,8.20
2019-03-31T23:57:41.150Z,8.10
